Archival Weather

Chicago O'Hare International

Chicago, Illinois (KORD)

Report from: Wednesday, February 1, 2023 5:51 PM CST
Current time: Tuesday, June 18, 2024 8:24 AM CDT

Current weather – Weather history – Daily summaries
Weather forecast

Temperature-3.9°C (25.0°F)
Wind chill-9.2°C (15.5°F)
Dew point-12.2°C (10.0°F)
Winds 8 kts (4.1 m/s, 9.2 mph) Southwest (220°)
Visibility10 mi. (16.1 km)
Clouds Few clouds 25,000 ft. (7,620 m)
Altimeter30.23 in.Hg (1024 mB)
Relative humidity52 %
Density altitude-2,692 ft. (-821 m)
Sea-level pressure102.5 kPa (1025 mB, 30.27 in.Hg)
Max temp last 6 hours-2.8°C (27.0°F)
Min temp last 6 hours-5.0°C (23.0°F)
Snow depth3.00 in. (76 mm)
Remarks Automated weather observing station with precipitation discriminator
Pressure falling more slowly
Flight conditions Visual Meteorological Conditions
Raw dataKORD 012351Z 22008KT 10SM FEW250 M04/M12 A3023 RMK AO2 SLP251 4/003 T10391122 11028 21050 56002
An error has occurred. This application may no longer respond until reloaded. Reload 🗙